Aeroboteco Virtual Airlines! Uma nuvem a frente.



 INFORMAÇÕES METEOROLÓGICAS
METAR FOR SERO
ADDS - METARS form results

(1617 UTC 21 September 2020)
Data provider http://aviationweather.gov/metar/data/
 
METAR text: SERO 211600Z 30008KT 9999 FEW010 BKN020 25/21 Q1012
Conditions at: SERO (SANTA ROSA , EC) observed 1600 UTC 21 September 2020
Temperature: 25.0°C (77°F)
Dewpoint: 21.0°C (70°F) [RH = 79%]
Pressure (altimeter): 29.88 inches Hg (1012.0 mb)
Winds: from the WNW (300 degrees) at 9 MPH (8 knots; 4.1 m/s)
Visibility: 6 or more miles (10+ km)
Ceiling: 2000 feet AGL
Clouds: few clouds at 1000 feet AGL
broken clouds at 2000 feet AGL
Weather: no significant weather observed at this time

 MAPA DO AEROPORTO

 INFORMAÇÕES DA PISTA
Pista 09 Tamanho da pista 3255 ft Largura da pista 59 ft
Elevação da pista 0 ft Ranhura da pista 0 ft Proa da pista 90
Pista 27 Tamanho da pista 3255 ft Largura da pista 59 ft
Elevação da pista 0 ft Ranhura da pista 0 ft Proa da pista 270

 FREQUÊNCIAS DO AEROPORTO

 AUXÍLIOS DE NAVEGAÇÃO PRÓXIMOS AO AEROPORTO